Time;durP1;ratioP1;P1;durP2;ratioP2;P2;SDS_P1;SDS_P2;PMS_P1;PMS_P2;Temp;Humidity;BMP_temperature;BMP_pressure;BME280_temperature;BME280_humidity;BME280_pressure;Samples;Min_cycle;Max_cycle;Signal;HPM_P1;HPM_P2
2020/12/27 00:02:15;;;;;;;5.47;3.30;;;;;;;-0.47;59.95;95730.44;4772013;30;20404;-39
2020/12/27 00:04:42;;;;;;;7.22;3.88;;;;;;;-0.74;60.14;95726.19;4769953;30;20051;-41
2020/12/27 00:07:10;;;;;;;7.05;3.20;;;;;;;-0.78;60.55;95721.66;4769640;29;20055;-40
2020/12/27 00:09:37;;;;;;;5.40;3.22;;;;;;;-0.72;60.35;95712.63;4768554;30;20066;-39
2020/12/27 00:12:05;;;;;;;5.22;3.22;;;;;;;-0.84;60.54;95702.28;4769685;30;20058;-39
2020/12/27 00:14:32;;;;;;;5.45;2.95;;;;;;;-0.96;60.83;95693.78;4769436;29;20060;-40
2020/12/27 00:17:05;;;;;;;6.45;3.72;;;;;;;-1.11;60.90;95681.28;4769465;30;20457;-39
2020/12/27 00:19:32;;;;;;;5.22;3.33;;;;;;;-1.23;61.43;95694.81;4767686;30;20519;-39
2020/12/27 00:21:59;;;;;;;6.25;3.30;;;;;;;-1.38;61.66;95676.19;4768436;30;20421;-39
2020/12/27 00:24:25;;;;;;;5.45;2.92;;;;;;;-1.46;61.63;95674.88;4769447;30;20059;-39
2020/12/27 00:26:52;;;;;;;6.43;3.28;;;;;;;-1.47;61.94;95669.81;4769112;30;20491;-42
2020/12/27 00:29:18;;;;;;;5.50;3.25;;;;;;;-1.43;62.14;95670.88;4768567;30;20068;-39
2020/12/27 00:31:54;;;;;;;6.20;2.97;;;;;;;-1.35;61.94;95664.28;4769285;30;20138;-39
2020/12/27 00:34:22;;;;;;;4.85;2.85;;;;;;;-1.40;61.55;95667.69;4769411;30;20398;-39
2020/12/27 00:36:49;;;;;;;5.50;3.05;;;;;;;-1.46;61.78;95666.13;4769270;30;20060;-39
2020/12/27 00:39:21;;;;;;;6.35;3.22;;;;;;;-1.47;61.70;95654.69;4768406;30;20062;-40
2020/12/27 00:41:48;;;;;;;6.20;3.30;;;;;;;-1.58;62.23;95674.31;4769205;30;20056;-41
2020/12/27 00:44:16;;;;;;;6.80;3.08;;;;;;;-1.52;61.79;95651.25;4769137;30;20052;-40
2020/12/27 00:46:51;;;;;;;6.35;2.83;;;;;;;-1.43;61.52;95644.34;4769243;30;20060;-40
2020/12/27 00:49:19;;;;;;;5.80;3.30;;;;;;;-1.48;61.58;95639.84;4768323;30;20060;-40
2020/12/27 00:51:45;;;;;;;4.72;2.80;;;;;;;-1.42;61.25;95638.00;4766927;30;20131;-40
2020/12/27 00:54:12;;;;;;;4.75;3.15;;;;;;;-1.43;60.85;95625.75;4768559;30;20048;-39
2020/12/27 00:56:39;;;;;;;5.20;3.10;;;;;;;-1.40;60.66;95611.97;4768160;30;20052;-40
2020/12/27 00:59:10;;;;;;;5.63;2.75;;;;;;;-1.46;60.53;95627.09;4769023;30;20123;-40
2020/12/27 01:01:37;;;;;;;6.35;2.80;;;;;;;-1.33;60.39;95625.81;4768350;30;20150;-40
2020/12/27 01:04:26;;;;;;;4.55;2.75;;;;;;;-1.37;60.77;95618.63;4771248;30;20060;-41
2020/12/27 01:06:56;;;;;;;5.25;2.60;;;;;;;-1.28;61.02;95617.81;4769420;30;20056;-39
2020/12/27 01:09:23;;;;;;;5.43;2.97;;;;;;;-1.19;60.51;95621.56;4767326;30;20506;-39
2020/12/27 01:11:50;;;;;;;4.85;2.70;;;;;;;-1.14;59.83;95622.59;4769500;30;20055;-40
2020/12/27 01:14:17;;;;;;;5.03;2.90;;;;;;;-1.10;60.28;95619.16;4767837;30;20522;-39
2020/12/27 01:16:50;;;;;;;4.25;2.75;;;;;;;-1.30;60.38;95617.31;4767497;30;20055;-42
2020/12/27 01:19:21;;;;;;;5.65;3.00;;;;;;;-1.49;60.90;95613.56;4766684;30;20570;-40
2020/12/27 01:21:48;;;;;;;5.30;2.63;;;;;;;-1.54;60.61;95610.91;4768884;30;20067;-40
2020/12/27 01:24:22;;;;;;;5.35;3.03;;;;;;;-1.97;62.08;95605.75;4767579;30;20455;-40
2020/12/27 01:26:48;;;;;;;5.65;3.20;;;;;;;-2.94;65.88;95604.50;4767335;30;20148;-40
2020/12/27 01:29:16;;;;;;;6.43;3.25;;;;;;;-2.89;65.45;95602.69;4752596;30;20078;-41
2020/12/27 01:31:52;;;;;;;5.97;3.05;;;;;;;-2.72;65.31;95599.06;4767908;30;20053;-40
2020/12/27 01:34:34;;;;;;;5.95;3.03;;;;;;;-2.34;64.20;95589.97;4768005;30;20514;-40
2020/12/27 01:37:01;;;;;;;5.47;3.08;;;;;;;-2.03;63.84;95584.81;4768662;30;20278;-39
2020/12/27 01:39:29;;;;;;;5.53;3.05;;;;;;;-2.00;63.22;95578.97;4768336;30;20085;-39
2020/12/27 01:41:55;;;;;;;5.75;3.10;;;;;;;-1.80;62.82;95579.03;4771656;30;20131;-39
2020/12/27 01:44:27;;;;;;;5.20;2.70;;;;;;;-1.59;61.86;95573.75;4769097;30;20052;-39
2020/12/27 01:46:58;;;;;;;4.88;3.03;;;;;;;-1.43;61.64;95572.69;4767412;30;20106;-39
2020/12/27 01:49:32;;;;;;;5.32;3.00;;;;;;;-1.47;61.42;95561.81;4766691;30;20064;-39
2020/12/27 01:51:59;;;;;;;4.15;2.35;;;;;;;-1.40;61.60;95566.84;4766935;30;20055;-39
2020/12/27 01:54:52;;;;;;;6.95;2.63;;;;;;;-1.37;60.98;95552.25;4768064;30;20076;-41
2020/12/27 01:57:21;;;;;;;5.25;2.67;;;;;;;-1.49;61.23;95541.94;4766463;30;20063;-39
2020/12/27 01:59:58;;;;;;;4.60;2.67;;;;;;;-1.44;60.79;95531.31;4767187;30;20058;-40
2020/12/27 02:02:44;;;;;;;5.55;3.17;;;;;;;-1.39;60.99;95526.00;4768423;29;20133;-39
2020/12/27 02:05:17;;;;;;;5.40;3.20;;;;;;;-1.38;60.93;95519.63;4771379;30;20146;-40
2020/12/27 02:07:45;;;;;;;5.35;3.17;;;;;;;-1.34;60.66;95511.94;4773377;30;20312;-39
2020/12/27 02:10:29;;;;;;;5.88;3.05;;;;;;;-1.30;60.96;95519.09;4773996;30;20058;-40
2020/12/27 02:12:55;;;;;;;5.65;2.83;;;;;;;-1.24;60.61;95502.09;4772732;30;20044;-40
2020/12/27 02:15:22;;;;;;;5.45;2.80;;;;;;;-1.26;60.04;95504.22;4771738;30;20062;-40
2020/12/27 02:18:07;;;;;;;4.65;2.45;;;;;;;-1.37;59.81;95480.63;4770623;30;20463;-39
2020/12/27 02:20:37;;;;;;;4.70;2.50;;;;;;;-1.35;59.56;95471.34;4770543;30;20425;-40
2020/12/27 02:23:15;;;;;;;4.63;2.30;;;;;;;-1.39;59.84;95459.66;4770099;30;20507;-39
2020/12/27 02:25:48;;;;;;;3.28;1.98;;;;;;;-1.56;59.57;95457.31;4770581;30;20578;-40
2020/12/27 02:28:38;;;;;;;4.75;2.53;;;;;;;-1.83;59.67;95420.44;4769478;30;20142;-40
2020/12/27 02:31:10;;;;;;;4.45;2.72;;;;;;;-1.72;59.50;95432.66;4770295;30;20115;-40
2020/12/27 02:33:54;;;;;;;4.40;2.60;;;;;;;-1.82;59.92;95427.34;4770270;30;20138;-40
2020/12/27 02:36:20;;;;;;;4.32;2.22;;;;;;;-1.81;60.52;95430.78;4769923;30;20293;-40
2020/12/27 02:38:49;;;;;;;4.18;2.50;;;;;;;-1.79;60.60;95424.16;4769151;30;20120;-40
2020/12/27 02:41:23;;;;;;;4.80;2.33;;;;;;;-1.63;60.55;95413.53;4770036;30;20513;-40
2020/12/27 02:44:05;;;;;;;;;;;;;;;-1.33;59.86;95405.53;4770668;30;20083;-40
2020/12/27 02:46:41;;;;;;;6.40;3.10;;;;;;;-1.25;59.72;95399.66;4770442;30;20020;-40
2020/12/27 02:49:26;;;;;;;5.30;2.95;;;;;;;-1.32;59.73;95388.53;4770424;30;20525;-39
2020/12/27 02:51:58;;;;;;;5.65;2.75;;;;;;;-1.24;59.46;95390.63;4769871;30;20058;-39
2020/12/27 02:54:25;;;;;;;4.15;2.50;;;;;;;-1.31;59.21;95384.00;4769728;30;20058;-41
2020/12/27 02:56:51;;;;;;;4.05;2.30;;;;;;;-1.40;59.44;95381.09;4769380;30;20062;-39
2020/12/27 02:59:19;;;;;;;4.18;2.50;;;;;;;-1.53;59.59;95371.06;4770218;30;20056;-41
2020/12/27 03:01:47;;;;;;;4.93;2.58;;;;;;;-1.69;59.91;95363.16;4769839;30;20055;-39
2020/12/27 03:04:43;;;;;;;5.53;2.60;;;;;;;-1.66;59.95;95357.31;4773652;30;20056;-39
2020/12/27 03:07:11;;;;;;;5.05;2.60;;;;;;;-1.69;59.77;95365.81;4769232;30;20060;-39
2020/12/27 03:09:48;;;;;;;3.90;2.25;;;;;;;-1.58;59.63;95347.22;4769373;30;20059;-39
2020/12/27 03:12:39;;;;;;;3.55;2.28;;;;;;;-1.60;59.72;95350.13;4769822;30;20218;-38
2020/12/27 03:15:05;;;;;;;4.50;2.50;;;;;;;-1.66;59.65;95341.41;4768462;30;20150;-39
2020/12/27 03:18:01;;;;;;;4.32;2.40;;;;;;;-1.64;59.48;95333.16;4783327;29;20055;-40
2020/12/27 03:20:48;;;;;;;4.72;2.33;;;;;;;-1.72;59.97;95331.88;4777844;30;20117;-40
2020/12/27 03:23:16;;;;;;;4.07;2.38;;;;;;;-1.61;59.78;95322.00;4769047;30;20044;-39
2020/12/27 03:25:49;;;;;;;3.67;2.13;;;;;;;-1.49;59.15;95321.72;4769182;30;20110;-39
2020/12/27 03:28:16;;;;;;;4.72;2.88;;;;;;;-1.57;59.71;95309.00;4789185;24;20063;-40
2020/12/27 03:30:48;;;;;;;4.63;2.63;;;;;;;-1.60;59.53;95306.88;4769600;30;20135;-40
2020/12/27 03:33:22;;;;;;;3.20;2.10;;;;;;;-1.58;59.38;95304.78;4769408;30;20459;-40
2020/12/27 03:35:53;;;;;;;4.53;2.22;;;;;;;-1.58;59.64;95294.94;4769260;30;20083;-40
2020/12/27 03:38:20;;;;;;;4.00;2.33;;;;;;;-1.43;59.32;95291.44;4768596;30;20052;-39
2020/12/27 03:41:07;;;;;;;4.68;3.08;;;;;;;-1.47;58.83;95283.22;4768912;30;20640;-40
2020/12/27 03:43:59;;;;;;;3.83;2.10;;;;;;;-1.59;58.89;95289.91;4775948;30;20062;-39
2020/12/27 03:46:49;;;;;;;5.18;2.47;;;;;;;-1.69;59.55;95291.56;4768460;30;20514;-40
2020/12/27 03:49:32;;;;;;;5.82;2.58;;;;;;;-1.55;59.71;95267.09;4768777;30;20461;-40
2020/12/27 03:52:29;;;;;;;4.05;2.33;;;;;;;-1.51;58.99;95262.81;4773286;29;20051;-39
2020/12/27 03:55:24;;;;;;;4.30;2.20;;;;;;;-1.71;59.34;95245.94;4773159;29;20071;-40
2020/12/27 03:58:03;;;;;;;4.47;2.15;;;;;;;-1.77;59.66;95249.66;4769209;30;20087;-39
2020/12/27 04:00:38;;;;;;;3.60;2.13;;;;;;;-1.85;59.72;95244.94;4775311;30;20063;-40
2020/12/27 04:03:14;;;;;;;3.83;2.30;;;;;;;-1.93;59.80;95234.88;4784155;30;20146;-39
2020/12/27 04:05:43;;;;;;;4.65;2.00;;;;;;;-1.90;60.03;95235.13;4772094;30;20067;-38
2020/12/27 04:08:09;;;;;;;3.53;2.30;;;;;;;-1.90;60.38;95223.72;4769520;30;20051;-38
2020/12/27 04:10:40;;;;;;;9.25;2.17;;;;;;;-1.79;59.69;95225.25;4770690;30;20079;-38
2020/12/27 04:13:06;;;;;;;3.80;2.22;;;;;;;-1.80;60.17;95204.34;4780620;30;20048;-39
2020/12/27 04:15:33;;;;;;;3.75;2.30;;;;;;;-1.82;59.67;95190.53;4783609;30;20067;-39
2020/12/27 04:18:10;;;;;;;4.93;2.38;;;;;;;-1.59;59.92;95205.84;4769262;30;20063;-39
2020/12/27 04:20:55;;;;;;;6.43;2.60;;;;;;;-1.53;59.78;95201.28;4770299;30;20060;-40
2020/12/27 04:23:22;;;;;;;4.45;2.63;;;;;;;-1.68;59.71;95187.03;4768478;30;20414;-39
2020/12/27 04:25:51;;;;;;;4.90;2.40;;;;;;;-1.82;60.45;95179.94;4769013;30;20057;-39
2020/12/27 04:28:18;;;;;;;4.85;2.30;;;;;;;-1.93;60.54;95174.69;4768094;30;20056;-39
2020/12/27 04:30:45;;;;;;;4.50;2.08;;;;;;;-2.19;60.60;95152.00;4754695;30;20082;-38
2020/12/27 04:33:34;;;;;;;4.18;2.15;;;;;;;-2.12;60.74;95168.38;4769790;30;20125;-38
2020/12/27 04:36:21;;;;;;;4.25;2.13;;;;;;;-2.29;60.15;95152.81;4770880;30;20062;-39
2020/12/27 04:38:50;;;;;;;3.58;2.05;;;;;;;-2.24;60.29;95154.63;4769639;30;20058;-40
2020/12/27 04:41:20;;;;;;;4.28;2.10;;;;;;;-2.33;60.32;95146.47;4769486;30;20055;-39
2020/12/27 04:43:50;;;;;;;3.85;2.20;;;;;;;-2.33;60.40;95145.69;4769927;30;20058;-39
2020/12/27 04:46:18;;;;;;;5.38;2.03;;;;;;;-2.40;60.34;95130.06;4770142;30;20430;-39
2020/12/27 04:48:53;;;;;;;4.07;2.28;;;;;;;-2.30;60.26;95131.91;4769222;30;20136;-38
2020/12/27 04:51:42;;;;;;;5.80;3.25;;;;;;;-2.18;59.77;95122.59;4768068;30;20412;-43
2020/12/27 04:54:39;;;;;;;3.80;2.00;;;;;;;-2.16;59.35;95124.94;4783481;29;20135;-41
2020/12/27 04:57:25;;;;;;;4.15;1.88;;;;;;;-2.20;59.04;95114.09;4769931;29;20469;-41
2020/12/27 04:59:55;;;;;;;3.88;1.98;;;;;;;-2.21;59.24;95104.56;4768841;30;20058;-41
2020/12/27 05:02:42;;;;;;;3.20;1.80;;;;;;;-2.07;59.10;95111.94;4768122;30;20503;-41
2020/12/27 05:05:13;;;;;;;2.72;1.73;;;;;;;-2.08;59.36;95103.19;4768369;30;20465;-42
2020/12/27 05:07:45;;;;;;;4.38;2.00;;;;;;;-1.99;59.02;95092.78;4752610;30;20071;-40
2020/12/27 05:10:22;;;;;;;4.00;1.75;;;;;;;-1.97;59.11;95095.97;4767758;30;20052;-41
2020/12/27 05:12:55;;;;;;;;;;;;;;;-1.68;58.85;95098.72;4768403;30;20139;-40
2020/12/27 05:15:23;;;;;;;3.90;1.70;;;;;;;-1.71;58.35;95093.97;4767939;30;19936;-43
2020/12/27 05:17:50;;;;;;;4.18;1.92;;;;;;;-1.79;58.07;95102.50;4767366;30;20064;-41
2020/12/27 05:20:21;;;;;;;3.72;1.67;;;;;;;-1.83;58.54;95099.59;4768163;30;20140;-41
2020/12/27 05:23:01;;;;;;;4.28;2.17;;;;;;;-1.67;58.67;95097.66;4770083;30;20048;-40
2020/12/27 05:25:47;;;;;;;4.68;1.85;;;;;;;-1.85;58.13;95077.06;4772376;30;20113;-41
2020/12/27 05:28:34;;;;;;;4.13;2.08;;;;;;;-1.95;58.72;95094.66;4772230;30;20112;-41
2020/12/27 05:31:13;;;;;;;4.32;2.30;;;;;;;-2.03;58.98;95094.41;4773473;30;20082;-42
2020/12/27 05:33:59;;;;;;;2.97;1.73;;;;;;;-2.25;59.00;95074.38;4773153;30;20474;-40
2020/12/27 05:37:01;;;;;;;4.03;2.05;;;;;;;-1.99;58.69;95090.16;4778301;29;20084;-40
2020/12/27 05:39:47;;;;;;;4.85;2.28;;;;;;;-1.99;58.36;95095.44;4772448;30;20058;-40
2020/12/27 05:42:35;;;;;;;3.65;2.10;;;;;;;-2.02;58.63;95093.34;4775054;29;20108;-39
2020/12/27 05:45:20;;;;;;;3.15;2.00;;;;;;;-2.06;58.99;95087.78;4771415;30;20070;-39
2020/12/27 05:47:51;;;;;;;3.70;2.05;;;;;;;-2.08;59.07;95081.19;4770913;30;20058;-40
2020/12/27 05:50:18;;;;;;;3.53;1.73;;;;;;;-2.10;59.29;95067.41;4773168;30;20502;-40
2020/12/27 05:52:48;;;;;;;3.15;2.00;;;;;;;-2.22;59.48;95063.22;4771596;30;20538;-41
2020/12/27 05:55:23;;;;;;;3.40;1.88;;;;;;;-2.18;59.81;95079.38;4772134;30;20479;-39
2020/12/27 05:57:52;;;;;;;5.45;2.30;;;;;;;-2.33;59.61;95037.84;4762085;30;20083;-39
2020/12/27 06:00:23;;;;;;;3.42;2.00;;;;;;;-2.36;60.14;95059.59;4774582;30;20134;-39
2020/12/27 06:03:01;;;;;;;7.15;2.30;;;;;;;-2.03;59.71;95052.00;4772034;30;20056;-40
2020/12/27 06:05:57;;;;;;;3.47;1.98;;;;;;;-2.03;59.52;95049.34;4771498;30;20059;-41
2020/12/27 06:08:30;;;;;;;3.53;1.88;;;;;;;-1.95;59.33;95038.97;4770461;30;20078;-40
2020/12/27 06:11:06;;;;;;;2.97;1.90;;;;;;;-1.94;58.90;95029.16;4770858;30;20051;-39
2020/12/27 06:14:25;;;;;;;3.85;1.70;;;;;;;-2.13;59.50;95019.19;4771935;30;20144;-41
2020/12/27 06:17:14;;;;;;;3.85;2.10;;;;;;;-2.24;59.96;95016.84;4771778;30;20052;-39
2020/12/27 06:20:07;;;;;;;3.95;1.85;;;;;;;-2.23;59.66;95013.94;4770794;29;20380;-40
2020/12/27 06:22:43;;;;;;;3.70;1.98;;;;;;;-2.27;59.61;95006.84;4770988;30;20151;-39
2020/12/27 06:25:28;;;;;;;3.50;2.08;;;;;;;-2.20;58.95;94976.31;4770972;30;20154;-39
2020/12/27 06:27:59;;;;;;;3.72;2.13;;;;;;;-1.96;58.91;94996.81;4771282;30;20109;-40
2020/12/27 06:30:44;;;;;;;3.92;2.22;;;;;;;-1.90;58.76;94993.06;4772492;30;20059;-40
2020/12/27 06:33:46;;;;;;;3.85;2.20;;;;;;;-1.94;58.77;94987.53;4776053;29;20051;-38
2020/12/27 06:36:32;;;;;;;3.60;2.08;;;;;;;-2.08;59.13;94977.81;4771390;30;20113;-41
2020/12/27 06:39:22;;;;;;;3.83;1.95;;;;;;;-2.12;59.49;94978.38;4771048;30;20146;-41
2020/12/27 06:42:10;;;;;;;4.45;2.65;;;;;;;-2.48;60.28;94959.25;4777029;30;20051;-39
2020/12/27 06:44:54;;;;;;;4.60;1.92;;;;;;;-2.83;61.81;94945.13;4761631;30;20089;-39
2020/12/27 06:47:58;;;;;;;4.57;2.20;;;;;;;-2.86;61.40;94944.88;4788429;29;20059;-39
2020/12/27 06:50:46;;;;;;;4.53;2.22;;;;;;;-2.73;61.57;94946.13;4771816;30;20079;-38
2020/12/27 06:53:44;;;;;;;3.90;2.00;;;;;;;-2.64;61.74;94950.59;4772382;30;20556;-41
2020/12/27 06:56:45;;;;;;;3.53;1.85;;;;;;;-2.70;61.11;94924.41;4775132;29;20055;-40
2020/12/27 06:59:32;;;;;;;4.10;2.28;;;;;;;-2.67;60.91;94924.66;4771134;30;20066;-39
2020/12/27 07:02:06;;;;;;;3.65;1.88;;;;;;;-2.46;60.70;94919.25;4755538;30;20048;-40
2020/12/27 07:04:37;;;;;;;4.50;2.30;;;;;;;-2.38;60.66;94906.19;4771403;30;20125;-41
2020/12/27 07:07:04;;;;;;;3.42;2.10;;;;;;;-2.30;60.41;94912.00;4771071;30;20146;-39
2020/12/27 07:09:39;;;;;;;3.67;2.00;;;;;;;-2.23;59.95;94926.50;4770674;30;20120;-39
2020/12/27 07:12:11;;;;;;;4.35;2.22;;;;;;;-2.28;59.75;94907.19;4769812;30;20055;-40
2020/12/27 07:14:41;;;;;;;4.65;2.25;;;;;;;-2.32;60.21;94927.38;4771369;30;20055;-40
2020/12/27 07:17:10;;;;;;;;;;;;;;;-2.09;59.22;94916.06;4770231;30;20060;-39
2020/12/27 07:19:39;;;;;;;3.35;1.88;;;;;;;-2.23;59.65;94944.28;4769499;29;20172;-38
2020/12/27 07:22:11;;;;;;;4.70;2.08;;;;;;;-2.45;59.22;94881.09;4770860;30;20083;-38
2020/12/27 07:24:41;;;;;;;3.83;2.13;;;;;;;-2.19;59.33;94911.63;4770861;30;20117;-41
2020/12/27 07:27:12;;;;;;;3.70;2.05;;;;;;;-2.18;59.62;94907.13;4770877;30;20063;-41
2020/12/27 07:29:40;;;;;;;3.65;2.00;;;;;;;-2.31;59.72;94905.09;4770410;30;20060;-39
2020/12/27 07:32:07;;;;;;;3.90;2.05;;;;;;;-2.29;59.56;94901.13;4769379;30;20376;-39
2020/12/27 07:34:34;;;;;;;5.43;1.88;;;;;;;-2.33;59.50;94902.75;4770119;30;20511;-40
2020/12/27 07:37:04;;;;;;;3.88;2.00;;;;;;;-2.59;59.95;94894.97;4771852;30;20082;-39
2020/12/27 07:39:50;;;;;;;6.10;1.98;;;;;;;-2.50;60.02;94871.34;4754420;30;20446;-41
2020/12/27 07:42:28;;;;;;;3.80;1.83;;;;;;;-2.40;59.47;94863.31;4770517;29;20048;-41
2020/12/27 07:44:58;;;;;;;3.33;1.80;;;;;;;-2.00;59.11;94873.88;4769590;30;20544;-40
2020/12/27 07:47:26;;;;;;;3.25;1.70;;;;;;;-2.15;58.64;94862.31;4770065;29;20082;-39
2020/12/27 07:50:07;;;;;;;2.83;1.80;;;;;;;-2.06;58.97;94848.47;4770393;30;20375;-38
2020/12/27 07:53:00;;;;;;;4.15;1.88;;;;;;;-2.06;58.51;94851.13;4770355;29;20056;-39
2020/12/27 07:55:27;;;;;;;4.38;2.15;;;;;;;-2.09;59.03;94843.72;4770342;30;20462;-39
2020/12/27 07:57:58;;;;;;;3.85;2.08;;;;;;;-2.10;59.09;94832.34;4769609;30;20066;-40
2020/12/27 08:00:33;;;;;;;3.90;2.30;;;;;;;-2.09;58.86;94828.63;4768602;30;20083;-39
2020/12/27 08:03:06;;;;;;;4.53;2.05;;;;;;;-1.94;58.45;94819.75;4769956;30;20056;-39
2020/12/27 08:05:37;;;;;;;4.28;2.50;;;;;;;-1.99;58.67;94804.66;4769910;29;20056;-41
2020/12/27 08:08:05;;;;;;;4.72;2.45;;;;;;;-1.76;57.84;94802.31;4769674;29;20554;-40
2020/12/27 08:10:32;;;;;;;2.95;1.67;;;;;;;-1.65;57.44;94785.22;4769942;30;20071;-40
2020/12/27 08:13:01;;;;;;;3.60;1.80;;;;;;;-1.61;57.05;94790.75;4770267;30;20100;-39
2020/12/27 08:15:30;;;;;;;4.00;1.60;;;;;;;-1.90;58.46;94783.63;4769973;29;20066;-40
2020/12/27 08:17:56;;;;;;;4.00;1.95;;;;;;;-1.79;58.39;94768.41;4768028;30;20097;-39
2020/12/27 08:20:24;;;;;;;4.35;2.17;;;;;;;-1.90;58.63;94757.91;4768533;30;20186;-38
2020/12/27 08:23:01;;;;;;;2.95;1.70;;;;;;;-1.91;58.89;94745.75;4769802;30;20060;-40
2020/12/27 08:25:28;;;;;;;4.10;2.00;;;;;;;-1.98;59.31;94744.47;4768536;30;20143;-40
2020/12/27 08:28:00;;;;;;;2.17;1.60;;;;;;;-1.93;58.98;94749.75;4768827;30;20112;-41
2020/12/27 08:30:28;;;;;;;4.30;2.00;;;;;;;-1.94;59.39;94745.53;4769562;30;20122;-40
2020/12/27 08:33:21;;;;;;;4.13;2.33;;;;;;;-1.59;58.63;94730.25;4770334;29;20283;-40
2020/12/27 08:35:50;;;;;;;4.53;1.95;;;;;;;-1.47;58.04;94725.31;4771820;30;20067;-41
2020/12/27 08:38:30;;;;;;;3.55;1.92;;;;;;;-1.29;57.62;94737.81;4768866;30;20113;-39
2020/12/27 08:41:31;;;;;;;2.97;1.60;;;;;;;-1.09;57.34;94726.13;4771030;30;20087;-39
2020/12/27 08:43:57;;;;;;;2.55;1.65;;;;;;;-1.07;58.85;94720.50;4772499;30;20052;-40
2020/12/27 08:46:36;;;;;;;4.05;2.15;;;;;;;-0.97;59.66;94710.56;4772600;30;20142;-40
2020/12/27 08:49:26;;;;;;;3.55;1.95;;;;;;;-0.90;57.27;94714.72;4772064;30;20142;-40
2020/12/27 08:52:02;;;;;;;5.18;2.25;;;;;;;-0.90;57.77;94715.50;4772291;30;20404;-40
2020/12/27 08:54:31;;;;;;;4.32;2.17;;;;;;;-0.86;57.24;94716.47;4768533;30;20449;-39
2020/12/27 08:56:59;;;;;;;3.40;2.03;;;;;;;-0.76;56.48;94702.25;4769317;30;20067;-40
2020/12/27 08:59:25;;;;;;;3.47;1.80;;;;;;;-0.71;56.29;94697.66;4768632;30;20083;-41
2020/12/27 09:01:52;;;;;;;5.13;2.20;;;;;;;-0.63;55.69;94690.09;4769843;30;20083;-40
2020/12/27 09:04:22;;;;;;;3.70;2.10;;;;;;;-0.50;55.91;94687.47;4769547;30;20136;-40
2020/12/27 09:06:53;;;;;;;3.67;2.03;;;;;;;-0.47;55.39;94680.78;4769310;30;20511;-40
2020/12/27 09:09:20;;;;;;;4.20;1.92;;;;;;;-0.47;54.87;94678.13;4768558;30;20063;-39
2020/12/27 09:11:47;;;;;;;5.10;2.10;;;;;;;-0.28;55.03;94675.41;4768090;30;20063;-40
2020/12/27 09:14:29;;;;;;;5.00;2.00;;;;;;;-0.17;55.61;94662.69;4768222;30;20056;-40
2020/12/27 09:17:00;;;;;;;4.20;2.10;;;;;;;-0.27;54.99;94661.81;4769190;29;20051;-41
2020/12/27 09:19:27;;;;;;;6.20;2.30;;;;;;;-0.35;55.04;94646.56;4772472;30;20060;-41
2020/12/27 09:21:54;;;;;;;4.50;2.63;;;;;;;-0.52;54.48;94607.28;4771319;30;20550;-40
2020/12/27 09:24:20;;;;;;;3.60;2.03;;;;;;;-0.36;54.95;94626.34;4767964;30;20138;-39
2020/12/27 09:26:47;;;;;;;5.53;1.98;;;;;;;-0.40;54.52;94625.38;4787065;24;20511;-39
2020/12/27 09:29:18;;;;;;;2.88;1.73;;;;;;;-0.39;54.18;94632.28;4769295;30;20064;-40
2020/12/27 09:31:45;;;;;;;3.88;2.10;;;;;;;-0.38;54.03;94615.25;4769425;30;20138;-43
2020/12/27 09:34:12;;;;;;;4.85;2.60;;;;;;;-0.14;53.77;94620.34;4769738;30;20467;-42
2020/12/27 09:36:39;;;;;;;3.75;2.10;;;;;;;-0.13;53.25;94608.66;4769041;30;20072;-41
2020/12/27 09:39:06;;;;;;;3.33;2.03;;;;;;;-0.27;53.21;94595.34;4769499;29;20056;-38
2020/12/27 09:41:37;;;;;;;4.82;1.73;;;;;;;-0.31;53.33;94586.41;4769630;30;20062;-41
2020/12/27 09:44:04;;;;;;;4.93;2.00;;;;;;;-0.24;54.05;94578.81;4769627;30;20098;-39
2020/12/27 09:46:58;;;;;;;3.72;2.13;;;;;;;-0.32;53.85;94584.84;4769619;30;20138;-40
2020/12/27 09:49:29;;;;;;;6.20;1.92;;;;;;;-0.11;53.62;94577.22;4766775;30;20425;-39
2020/12/27 09:52:12;;;;;;;4.28;2.17;;;;;;;-0.14;52.48;94550.47;4769344;29;20059;-39
2020/12/27 09:54:43;;;;;;;5.28;2.17;;;;;;;-0.11;52.88;94571.91;4767677;30;20321;-39
2020/12/27 09:57:27;;;;;;;3.92;2.28;;;;;;;-0.32;54.05;94566.25;4768892;30;20056;-39
2020/12/27 09:59:54;;;;;;;;;;;;;;;0.23;52.50;94560.03;4769392;30;20075;-39
2020/12/27 10:02:24;;;;;;;7.57;2.28;;;;;;;0.11;52.46;94541.16;4768799;29;20307;-39
2020/12/27 10:04:50;;;;;;;3.45;2.08;;;;;;;0.05;52.81;94529.84;4768861;30;20064;-40
2020/12/27 10:07:17;;;;;;;6.43;2.60;;;;;;;0.01;53.56;94525.44;4768188;30;20113;-40
2020/12/27 10:09:44;;;;;;;4.05;1.88;;;;;;;-0.01;52.82;94513.19;4768222;30;20147;-40
2020/12/27 10:12:11;;;;;;;3.40;1.80;;;;;;;-0.16;53.37;94505.59;4768616;30;20109;-40
2020/12/27 10:14:38;;;;;;;5.07;2.10;;;;;;;-0.08;53.15;94491.56;4768552;30;20055;-40
2020/12/27 10:17:04;;;;;;;5.15;2.50;;;;;;;-0.16;53.28;94494.13;4768527;30;20059;-39
2020/12/27 10:19:31;;;;;;;5.78;2.35;;;;;;;0.10;53.23;94491.69;4768688;30;20607;-39
2020/12/27 10:21:57;;;;;;;5.63;2.40;;;;;;;0.09;53.26;94482.16;4768799;30;20075;-39
2020/12/27 10:24:26;;;;;;;8.25;2.55;;;;;;;0.07;52.83;94473.72;4769852;30;20063;-39
2020/12/27 10:26:54;;;;;;;6.90;2.30;;;;;;;-0.15;54.44;94464.63;4771492;30;20067;-38
2020/12/27 10:29:20;;;;;;;3.78;2.10;;;;;;;-0.31;53.90;94450.88;4771205;30;20183;-39
2020/12/27 10:31:54;;;;;;;8.00;4.15;;;;;;;0.01;54.16;94435.03;4771619;30;20086;-40
2020/12/27 10:34:21;;;;;;;3.70;1.88;;;;;;;0.31;52.39;94406.91;4771946;29;20052;-39
2020/12/27 10:36:50;;;;;;;5.93;2.50;;;;;;;0.63;51.92;94411.91;4770462;30;20055;-39
2020/12/27 10:39:17;;;;;;;5.43;2.50;;;;;;;0.86;51.03;94419.84;4770935;30;20104;-38
2020/12/27 10:41:45;;;;;;;5.32;2.70;;;;;;;0.98;50.37;94413.94;4771789;30;20622;-38
2020/12/27 10:44:12;;;;;;;5.18;2.55;;;;;;;1.24;50.23;94411.34;4771583;30;20135;-42
2020/12/27 10:46:38;;;;;;;5.40;2.40;;;;;;;1.37;49.63;94400.56;4771653;30;20083;-42
2020/12/27 10:49:05;;;;;;;9.45;2.78;;;;;;;1.43;49.10;94382.56;4770769;29;20085;-42
2020/12/27 10:51:38;;;;;;;6.13;2.25;;;;;;;1.45;49.40;94390.22;4771337;30;20070;-42
2020/12/27 10:54:07;;;;;;;3.60;2.08;;;;;;;0.99;49.88;94388.88;4771231;30;20048;-41
2020/12/27 10:56:34;;;;;;;4.85;2.28;;;;;;;1.42;49.30;94370.31;4771136;29;20052;-42
2020/12/27 10:59:01;;;;;;;4.07;2.30;;;;;;;1.54;49.48;94341.16;4770789;30;20086;-42
2020/12/27 11:01:27;;;;;;;5.55;2.58;;;;;;;1.54;48.22;94341.16;4771052;30;20086;-42
2020/12/27 11:03:54;;;;;;;4.40;2.30;;;;;;;1.48;49.37;94345.06;4770915;30;20138;-43
2020/12/27 11:06:28;;;;;;;6.47;2.50;;;;;;;1.69;49.43;94349.78;4770977;30;20062;-42
2020/12/27 11:08:54;;;;;;;5.70;2.60;;;;;;;1.40;49.34;94346.66;4770228;30;20059;-41
2020/12/27 11:11:32;;;;;;;7.50;2.55;;;;;;;1.00;51.98;94340.63;4771196;30;20066;-41
2020/12/27 11:13:59;;;;;;;5.72;2.45;;;;;;;1.24;52.17;94344.75;4771136;30;20060;-40
2020/12/27 11:16:25;;;;;;;3.40;2.00;;;;;;;1.52;48.33;94342.56;4772028;30;20060;-41
2020/12/27 11:18:51;;;;;;;5.22;2.30;;;;;;;1.70;48.56;94332.69;4770457;30;20701;-41
2020/12/27 11:21:18;;;;;;;3.53;2.08;;;;;;;1.92;48.17;94335.19;4771181;30;20056;-40
2020/12/27 11:23:44;;;;;;;5.55;2.42;;;;;;;2.20;47.37;94318.78;4771251;30;20051;-40
2020/12/27 11:26:17;;;;;;;3.97;2.10;;;;;;;2.36;46.78;94311.84;4769906;30;20059;-42
2020/12/27 11:28:43;;;;;;;10.95;2.97;;;;;;;2.34;46.36;94306.84;4771045;30;20518;-42
2020/12/27 11:31:11;;;;;;;4.00;2.50;;;;;;;2.53;46.44;94293.06;4771277;30;20138;-41
2020/12/27 11:33:37;;;;;;;5.35;3.03;;;;;;;2.94;45.89;94274.81;4770582;30;20048;-42
2020/12/27 11:36:04;;;;;;;4.82;2.78;;;;;;;3.31;45.17;94273.13;4769862;30;20142;-42
2020/12/27 11:38:30;;;;;;;4.97;2.40;;;;;;;3.61;44.63;94254.34;4770070;29;20143;-39
2020/12/27 11:40:56;;;;;;;7.30;2.97;;;;;;;3.93;44.67;94234.81;4770726;30;20493;-39
2020/12/27 11:43:23;;;;;;;4.88;2.80;;;;;;;4.18;42.75;94224.16;4770615;30;20063;-40
2020/12/27 11:45:51;;;;;;;4.57;2.38;;;;;;;4.23;41.75;94207.88;4769522;30;20056;-42
2020/12/27 11:48:18;;;;;;;6.03;3.03;;;;;;;4.24;41.56;94189.91;4753891;30;20518;-43
2020/12/27 11:50:44;;;;;;;6.93;2.15;;;;;;;4.30;41.33;94192.03;4770755;30;20135;-39
2020/12/27 11:53:14;;;;;;;7.45;2.20;;;;;;;4.40;41.01;94180.09;4772326;30;20055;-41
2020/12/27 11:55:41;;;;;;;4.45;2.38;;;;;;;4.60;40.53;94173.06;4769302;30;20140;-41
2020/12/27 11:58:08;;;;;;;7.88;2.60;;;;;;;4.35;40.74;94170.38;4770543;30;20451;-42
2020/12/27 12:00:34;;;;;;;5.38;2.60;;;;;;;4.15;41.97;94156.00;4769169;30;20059;-42
2020/12/27 12:03:00;;;;;;;6.57;2.75;;;;;;;4.09;41.97;94149.28;4768684;30;20498;-42
2020/12/27 12:05:27;;;;;;;4.75;2.67;;;;;;;4.07;42.35;94142.75;4770230;30;20175;-39
2020/12/27 12:07:53;;;;;;;7.75;2.97;;;;;;;4.07;42.26;94132.81;4769436;30;20063;-42